createdAt,value
2023-05-20T00:01:52.104Z,13.71
2023-05-20T00:04:18.931Z,13.70
2023-05-20T00:06:45.594Z,13.56
2023-05-20T00:09:12.342Z,13.38
2023-05-20T00:11:39.079Z,13.51
2023-05-20T00:14:06.283Z,13.64
2023-05-20T00:16:33.183Z,13.69
2023-05-20T00:19:00.028Z,13.68
2023-05-20T00:21:26.811Z,13.68
2023-05-20T00:23:53.466Z,13.62
2023-05-20T00:26:21.429Z,13.56
2023-05-20T00:28:48.513Z,13.51
2023-05-20T00:31:15.756Z,13.50
2023-05-20T00:33:42.350Z,13.50
2023-05-20T00:36:11.844Z,13.50
2023-05-20T00:38:41.509Z,13.50
2023-05-20T00:41:08.218Z,13.40
2023-05-20T00:43:34.867Z,13.35
2023-05-20T00:46:02.085Z,13.26
2023-05-20T00:48:37.030Z,13.36
2023-05-20T00:51:05.140Z,13.39
2023-05-20T00:53:31.801Z,13.44
2023-05-20T00:55:58.458Z,13.46
2023-05-20T00:58:25.130Z,13.47
2023-05-20T01:00:52.152Z,13.37
2023-05-20T01:03:19.222Z,13.41
2023-05-20T01:05:45.984Z,13.37
2023-05-20T01:08:12.914Z,13.35
2023-05-20T01:10:45.127Z,13.24
2023-05-20T01:13:15.829Z,13.21
2023-05-20T01:15:48.326Z,13.10
2023-05-20T01:18:18.348Z,13.00
2023-05-20T01:20:51.128Z,13.05
2023-05-20T01:23:19.696Z,13.14
2023-05-20T01:25:46.358Z,13.22
2023-05-20T01:28:17.954Z,13.23
2023-05-20T01:30:51.201Z,13.20
2023-05-20T01:33:22.091Z,13.16
2023-05-20T01:35:49.177Z,13.04
2023-05-20T01:38:19.246Z,13.01
2023-05-20T01:40:47.958Z,13.05
2023-05-20T01:43:17.624Z,12.99
2023-05-20T01:45:44.976Z,12.99
2023-05-20T01:48:18.135Z,13.00
2023-05-20T01:50:44.964Z,12.96
2023-05-20T01:53:11.663Z,12.89
2023-05-20T01:55:38.258Z,12.86
2023-05-20T01:58:05.055Z,12.85
2023-05-20T02:00:34.193Z,12.99
2023-05-20T02:03:01.258Z,13.00
2023-05-20T02:05:27.925Z,13.05
2023-05-20T02:07:54.688Z,13.07
2023-05-20T02:10:21.321Z,13.08
2023-05-20T02:12:49.419Z,13.08
2023-05-20T02:15:16.345Z,13.07
2023-05-20T02:17:43.887Z,13.07
2023-05-20T02:20:11.833Z,13.02
2023-05-20T02:22:38.625Z,13.05
2023-05-20T02:25:05.894Z,13.08
2023-05-20T02:27:32.633Z,13.10
2023-05-20T02:30:00.285Z,13.11
2023-05-20T02:32:28.907Z,13.11
2023-05-20T02:34:55.839Z,13.07
2023-05-20T02:37:22.729Z,13.04
2023-05-20T02:39:49.447Z,12.94
2023-05-20T02:42:16.133Z,12.86
2023-05-20T02:44:42.820Z,12.92
2023-05-20T02:47:10.569Z,12.99
2023-05-20T02:49:37.288Z,12.96
2023-05-20T02:52:05.564Z,12.87
2023-05-20T02:54:32.515Z,12.80
2023-05-20T02:56:59.205Z,12.74
2023-05-20T02:59:28.794Z,12.68
2023-05-20T03:01:55.779Z,12.57
2023-05-20T03:04:22.435Z,12.57
2023-05-20T03:06:49.105Z,12.55
2023-05-20T03:09:15.785Z,12.64
2023-05-20T03:11:42.455Z,12.64
2023-05-20T03:14:08.966Z,12.62
2023-05-20T03:16:36.897Z,12.60
2023-05-20T03:19:03.613Z,12.55
2023-05-20T03:21:30.481Z,12.51
2023-05-20T03:23:57.190Z,12.52
2023-05-20T03:26:23.835Z,12.53
2023-05-20T03:28:50.487Z,12.51
2023-05-20T03:31:17.708Z,12.67
2023-05-20T03:33:45.572Z,12.76
2023-05-20T03:36:12.180Z,12.85
2023-05-20T03:38:40.896Z,12.78
2023-05-20T03:41:07.622Z,12.61
2023-05-20T03:43:34.175Z,12.59
2023-05-20T03:46:00.977Z,12.61
2023-05-20T03:48:27.658Z,12.63
2023-05-20T03:50:54.398Z,12.73
2023-05-20T03:53:21.140Z,12.81
2023-05-20T03:55:47.821Z,12.85
2023-05-20T03:58:15.483Z,12.95
2023-05-20T04:00:42.542Z,13.08
2023-05-20T04:03:09.255Z,13.11
2023-05-20T04:05:36.982Z,13.09
2023-05-20T04:08:05.073Z,13.17
2023-05-20T04:10:34.677Z,13.33
2023-05-20T04:13:01.541Z,13.44
2023-05-20T04:15:29.796Z,13.44
2023-05-20T04:17:56.553Z,13.61
2023-05-20T04:20:24.426Z,13.70
2023-05-20T04:22:52.334Z,13.71
2023-05-20T04:25:19.132Z,13.87
2023-05-20T04:27:46.116Z,13.98
2023-05-20T04:30:15.867Z,14.06
2023-05-20T04:32:42.622Z,14.33
2023-05-20T04:35:12.232Z,14.52
2023-05-20T04:37:39.433Z,14.57
2023-05-20T04:40:06.864Z,14.51
2023-05-20T04:42:37.883Z,14.54
2023-05-20T04:45:05.907Z,14.56
2023-05-20T04:47:38.938Z,14.56
2023-05-20T04:50:17.266Z,14.62
2023-05-20T04:52:47.240Z,14.70
2023-05-20T04:55:14.031Z,14.69
2023-05-20T04:57:42.201Z,14.55
2023-05-20T05:00:13.577Z,14.78
2023-05-20T05:02:40.587Z,14.91
2023-05-20T05:05:07.938Z,14.92
2023-05-20T05:07:35.025Z,14.96
2023-05-20T05:10:01.915Z,15.05
2023-05-20T05:12:28.558Z,15.13
2023-05-20T05:14:55.225Z,15.31
2023-05-20T05:17:22.156Z,15.34
2023-05-20T05:19:48.784Z,15.10
2023-05-20T05:22:15.436Z,15.20
2023-05-20T05:24:42.087Z,15.54
2023-05-20T05:27:08.947Z,15.61
2023-05-20T05:29:35.763Z,15.87
2023-05-20T05:32:02.403Z,15.69
2023-05-20T05:34:29.154Z,15.91
2023-05-20T05:36:55.925Z,15.93
2023-05-20T05:39:22.626Z,15.99
2023-05-20T05:41:49.267Z,16.10
2023-05-20T05:44:15.901Z,16.04
2023-05-20T05:46:42.553Z,15.89
2023-05-20T05:49:09.317Z,15.98
2023-05-20T05:51:37.580Z,16.08
2023-05-20T05:54:05.758Z,16.29
2023-05-20T05:56:32.432Z,16.39
2023-05-20T05:58:59.106Z,16.33
2023-05-20T06:01:26.068Z,16.31
2023-05-20T06:03:54.706Z,16.40
2023-05-20T06:06:23.346Z,16.38
2023-05-20T06:08:50.091Z,16.53
2023-05-20T06:11:16.901Z,16.68
2023-05-20T06:13:43.588Z,16.91
2023-05-20T06:16:12.684Z,17.14
2023-05-20T06:18:39.398Z,17.17
2023-05-20T06:21:06.276Z,17.14
2023-05-20T06:23:32.945Z,17.28
2023-05-20T06:26:00.289Z,17.43
2023-05-20T06:28:27.915Z,17.67
2023-05-20T06:30:55.425Z,17.78
2023-05-20T06:33:28.660Z,17.92
2023-05-20T06:35:56.770Z,17.94
2023-05-20T06:38:23.530Z,18.05
2023-05-20T06:40:51.510Z,18.19
2023-05-20T06:43:18.641Z,18.45
2023-05-20T06:45:45.687Z,18.63
2023-05-20T06:48:12.517Z,18.63
2023-05-20T06:50:39.140Z,18.54
2023-05-20T06:53:05.781Z,18.56
2023-05-20T06:55:32.620Z,18.59
2023-05-20T06:57:59.656Z,18.55
2023-05-20T07:00:32.170Z,18.54
2023-05-20T07:02:59.025Z,18.74
2023-05-20T07:05:25.924Z,18.98
2023-05-20T07:07:52.579Z,19.11
2023-05-20T07:10:19.221Z,19.27
2023-05-20T07:12:45.859Z,19.42
2023-05-20T07:15:12.585Z,19.62
2023-05-20T07:17:39.237Z,19.65
2023-05-20T07:20:06.693Z,19.69
2023-05-20T07:22:33.346Z,19.45
2023-05-20T07:25:01.315Z,19.63
2023-05-20T07:27:28.045Z,19.78
2023-05-20T07:29:55.030Z,19.80
2023-05-20T07:32:21.777Z,19.72
2023-05-20T07:34:48.489Z,19.73
2023-05-20T07:37:16.243Z,19.92
2023-05-20T07:39:43.226Z,19.92
2023-05-20T07:42:10.024Z,20.02
2023-05-20T07:44:36.721Z,20.21
2023-05-20T07:47:03.316Z,20.23
2023-05-20T07:49:30.009Z,20.41
2023-05-20T07:51:57.055Z,20.65
2023-05-20T07:54:24.107Z,20.68
2023-05-20T07:56:51.005Z,20.83
2023-05-20T07:59:17.615Z,20.98
2023-05-20T08:01:44.378Z,20.94
2023-05-20T08:04:11.398Z,20.87
2023-05-20T08:06:38.624Z,20.88
2023-05-20T08:09:05.387Z,21.00
2023-05-20T08:11:31.942Z,21.02
2023-05-20T08:13:58.597Z,20.99
2023-05-20T08:16:25.313Z,21.18
2023-05-20T08:18:52.073Z,21.19
2023-05-20T08:21:18.759Z,21.28
2023-05-20T08:23:45.520Z,21.35
2023-05-20T08:26:12.313Z,21.33
2023-05-20T08:28:39.096Z,21.55
2023-05-20T08:31:05.874Z,21.96
2023-05-20T08:33:32.744Z,21.65
2023-05-20T08:36:04.823Z,21.99
2023-05-20T08:38:31.518Z,22.37
2023-05-20T08:40:58.341Z,22.59
2023-05-20T08:43:25.986Z,23.09
2023-05-20T08:45:53.054Z,23.28
2023-05-20T08:48:22.650Z,23.52
2023-05-20T08:50:52.900Z,23.53
2023-05-20T08:53:22.124Z,23.22
2023-05-20T08:56:03.208Z,23.45
2023-05-20T08:58:31.112Z,23.51
2023-05-20T09:00:59.027Z,23.72
2023-05-20T09:03:26.092Z,23.59
2023-05-20T09:05:54.164Z,23.42
2023-05-20T09:08:26.926Z,23.29
2023-05-20T09:10:54.604Z,23.17
2023-05-20T09:13:23.687Z,23.31
2023-05-20T09:15:51.067Z,23.36
2023-05-20T09:18:17.846Z,23.72
2023-05-20T09:20:47.844Z,23.62
2023-05-20T09:23:14.520Z,23.42
2023-05-20T09:25:41.149Z,23.49
2023-05-20T09:28:08.874Z,23.68
2023-05-20T09:30:35.736Z,23.77
2023-05-20T09:33:05.153Z,24.06
2023-05-20T09:35:37.547Z,23.92
2023-05-20T09:38:08.129Z,23.31
2023-05-20T09:40:37.919Z,23.29
2023-05-20T09:43:07.920Z,23.74
2023-05-20T09:45:35.305Z,24.07
2023-05-20T09:48:03.402Z,24.19
2023-05-20T09:50:31.500Z,23.82
2023-05-20T09:53:02.977Z,24.51
2023-05-20T09:55:30.884Z,24.77
2023-05-20T09:58:01.976Z,25.00
2023-05-20T10:00:28.795Z,24.60
2023-05-20T10:02:55.731Z,24.36
2023-05-20T10:05:30.773Z,24.11
2023-05-20T10:08:24.957Z,23.97
2023-05-20T10:10:51.436Z,23.28
2023-05-20T10:13:36.246Z,23.29
2023-05-20T10:16:27.108Z,23.52
2023-05-20T10:19:02.886Z,23.36
2023-05-20T10:21:29.693Z,23.32
2023-05-20T10:24:06.647Z,23.51
2023-05-20T10:26:41.405Z,23.41
2023-05-20T10:29:20.781Z,22.33
2023-05-20T10:31:52.139Z,22.21
2023-05-20T10:34:20.618Z,22.43
2023-05-20T10:36:50.562Z,22.64
2023-05-20T10:39:18.435Z,22.75
2023-05-20T10:41:45.214Z,23.09
2023-05-20T10:44:11.898Z,23.21
2023-05-20T10:46:57.153Z,23.38
2023-05-20T10:49:34.049Z,23.94
2023-05-20T10:52:00.859Z,23.39
2023-05-20T10:54:29.096Z,24.00
2023-05-20T10:56:55.779Z,24.50
2023-05-20T10:59:22.785Z,24.58
2023-05-20T11:01:50.408Z,24.69
2023-05-20T11:04:17.710Z,24.17
2023-05-20T11:06:53.671Z,24.19
2023-05-20T11:09:20.303Z,24.67
2023-05-20T11:11:47.440Z,24.86
2023-05-20T11:14:15.209Z,25.26
2023-05-20T11:16:42.589Z,24.80
2023-05-20T11:19:14.684Z,24.30
2023-05-20T11:21:47.773Z,24.91
2023-05-20T11:24:15.030Z,24.22
2023-05-20T11:26:43.102Z,23.98
2023-05-20T11:29:09.850Z,23.96
2023-05-20T11:31:39.161Z,22.93
2023-05-20T11:34:06.155Z,22.34
2023-05-20T11:36:32.979Z,21.75
2023-05-20T11:39:00.676Z,21.47
2023-05-20T11:41:28.825Z,21.69
2023-05-20T11:43:58.247Z,20.83
2023-05-20T11:46:25.525Z,20.77
2023-05-20T11:48:55.832Z,20.54
2023-05-20T11:51:29.924Z,20.20
2023-05-20T11:54:03.772Z,19.84
2023-05-20T11:56:31.590Z,19.46
2023-05-20T11:59:00.132Z,19.62
2023-05-20T12:01:30.217Z,19.88
2023-05-20T12:03:57.070Z,19.85
2023-05-20T12:06:23.999Z,19.80
2023-05-20T12:08:51.196Z,19.50
2023-05-20T12:11:18.052Z,20.18
2023-05-20T12:13:44.740Z,20.52
2023-05-20T12:16:11.352Z,21.09
2023-05-20T12:18:38.007Z,21.24
2023-05-20T12:21:04.649Z,21.60
2023-05-20T12:23:34.104Z,22.07
2023-05-20T12:26:01.218Z,22.63
2023-05-20T12:28:28.017Z,22.87
2023-05-20T12:30:54.585Z,23.19
2023-05-20T12:33:21.259Z,23.12
2023-05-20T12:35:47.992Z,23.33
2023-05-20T12:38:14.814Z,23.82
2023-05-20T12:40:41.607Z,23.73
2023-05-20T12:43:08.317Z,23.79
2023-05-20T12:45:35.238Z,23.99
2023-05-20T12:48:02.326Z,24.41
2023-05-20T12:50:29.035Z,24.64
2023-05-20T12:52:55.720Z,24.64
2023-05-20T12:55:22.709Z,24.80
2023-05-20T12:57:50.478Z,24.97
2023-05-20T13:00:17.774Z,25.56
2023-05-20T13:02:44.624Z,25.37
2023-05-20T13:05:17.658Z,25.79
2023-05-20T13:07:44.626Z,25.57
2023-05-20T13:10:18.114Z,25.83
2023-05-20T13:12:47.366Z,25.43
2023-05-20T13:15:17.828Z,25.60
2023-05-20T13:17:44.820Z,26.07
2023-05-20T13:20:12.023Z,24.89
2023-05-20T13:22:38.698Z,25.07
2023-05-20T13:25:06.685Z,26.05
2023-05-20T13:27:33.359Z,26.14
2023-05-20T13:30:01.962Z,26.74
2023-05-20T13:32:28.671Z,26.62
2023-05-20T13:34:59.630Z,27.10
2023-05-20T13:37:26.521Z,26.58
2023-05-20T13:39:53.173Z,26.32
2023-05-20T13:42:19.894Z,26.15
2023-05-20T13:44:47.040Z,26.03
2023-05-20T13:47:13.839Z,25.52
2023-05-20T13:49:40.642Z,25.45
2023-05-20T13:52:07.526Z,25.32
2023-05-20T13:54:34.147Z,25.26
2023-05-20T13:57:01.465Z,25.20
2023-05-20T13:59:28.553Z,25.44
2023-05-20T14:01:58.759Z,26.48
2023-05-20T14:04:25.879Z,27.13
2023-05-20T14:06:52.615Z,27.21
2023-05-20T14:09:19.275Z,27.29
2023-05-20T14:11:46.103Z,27.65
2023-05-20T14:14:12.764Z,27.22
2023-05-20T14:16:41.208Z,27.01
2023-05-20T14:19:09.056Z,27.09
2023-05-20T14:21:36.140Z,27.04
2023-05-20T14:24:06.737Z,27.20
2023-05-20T14:26:39.230Z,27.62
2023-05-20T14:29:18.980Z,27.93
2023-05-20T14:31:48.936Z,27.14
2023-05-20T14:34:24.279Z,27.06
2023-05-20T14:36:53.381Z,27.57
2023-05-20T14:39:20.021Z,27.19
2023-05-20T14:41:46.682Z,27.70
2023-05-20T14:44:13.499Z,27.76
2023-05-20T14:46:49.439Z,28.10
2023-05-20T14:49:16.119Z,28.21
2023-05-20T14:51:42.951Z,28.10
2023-05-20T14:54:15.141Z,28.43
2023-05-20T14:56:49.314Z,28.51
2023-05-20T14:59:19.661Z,28.69
2023-05-20T15:01:46.679Z,29.02
2023-05-20T15:04:13.439Z,28.94
2023-05-20T15:06:40.204Z,29.45
2023-05-20T15:09:10.228Z,29.37
2023-05-20T15:11:36.963Z,29.75
2023-05-20T15:14:08.051Z,29.70
2023-05-20T15:16:34.714Z,29.47
2023-05-20T15:19:01.526Z,29.46
2023-05-20T15:21:28.295Z,29.69
2023-05-20T15:23:57.143Z,29.22
2023-05-20T15:26:26.574Z,29.66
2023-05-20T15:28:54.144Z,29.78
2023-05-20T15:31:21.042Z,30.03
2023-05-20T15:33:47.866Z,30.57
2023-05-20T15:36:14.598Z,30.82
2023-05-20T15:38:41.381Z,30.37
2023-05-20T15:41:08.116Z,31.01
2023-05-20T15:43:34.746Z,30.27
2023-05-20T15:46:01.443Z,30.74
2023-05-20T15:48:32.669Z,31.08
2023-05-20T15:51:02.318Z,31.01
2023-05-20T15:53:28.924Z,30.50
2023-05-20T15:55:55.750Z,30.11
2023-05-20T15:58:22.490Z,30.60
2023-05-20T16:00:50.200Z,30.95
2023-05-20T16:03:16.961Z,30.37
2023-05-20T16:05:43.697Z,29.44
2023-05-20T16:08:10.536Z,28.97
2023-05-20T16:10:37.399Z,27.42
2023-05-20T16:13:04.063Z,25.80
2023-05-20T16:15:35.669Z,25.40
2023-05-20T16:18:03.042Z,26.08
2023-05-20T16:20:30.458Z,28.46
2023-05-20T16:22:57.112Z,29.19
2023-05-20T16:25:23.813Z,29.85
2023-05-20T16:27:51.553Z,30.57
2023-05-20T16:30:18.207Z,29.73
2023-05-20T16:32:48.088Z,30.13
2023-05-20T16:35:16.513Z,29.34
2023-05-20T16:37:44.461Z,29.50
2023-05-20T16:40:11.695Z,28.38
2023-05-20T16:42:39.759Z,27.24
2023-05-20T16:45:06.976Z,26.10
2023-05-20T16:47:37.297Z,24.06
2023-05-20T16:50:04.709Z,24.47
2023-05-20T16:52:34.186Z,24.95
2023-05-20T16:55:03.925Z,25.28
2023-05-20T16:57:31.310Z,24.91
2023-05-20T16:59:58.513Z,23.08
2023-05-20T17:02:25.318Z,21.65
2023-05-20T17:04:52.108Z,20.55
2023-05-20T17:07:24.746Z,19.73
2023-05-20T17:09:51.550Z,19.58
2023-05-20T17:12:18.961Z,19.81
2023-05-20T17:14:46.132Z,20.04
2023-05-20T17:17:15.065Z,19.71
2023-05-20T17:19:41.893Z,19.32
2023-05-20T17:22:08.584Z,19.68
2023-05-20T17:24:35.946Z,19.64
2023-05-20T17:27:03.793Z,19.78
2023-05-20T17:29:30.584Z,19.65
2023-05-20T17:31:57.216Z,19.01
2023-05-20T17:34:23.819Z,18.96
2023-05-20T17:36:50.657Z,19.20
2023-05-20T17:39:19.572Z,19.36
2023-05-20T17:41:46.301Z,19.09
2023-05-20T17:44:13.270Z,19.24
2023-05-20T17:46:39.930Z,19.02
2023-05-20T17:49:06.676Z,18.77
2023-05-20T17:51:33.444Z,19.10
2023-05-20T17:54:00.038Z,19.20
2023-05-20T17:56:26.903Z,18.98
2023-05-20T17:58:54.933Z,18.84
2023-05-20T18:01:23.473Z,18.80
2023-05-20T18:03:50.332Z,18.90
2023-05-20T18:06:18.053Z,18.59
2023-05-20T18:08:44.940Z,18.58
2023-05-20T18:11:11.671Z,18.71
2023-05-20T18:13:38.351Z,18.91
2023-05-20T18:16:05.684Z,19.00
2023-05-20T18:18:32.483Z,18.81
2023-05-20T18:20:59.224Z,18.68
2023-05-20T18:23:25.886Z,18.73
2023-05-20T18:25:52.551Z,18.61
2023-05-20T18:28:19.169Z,18.40
2023-05-20T18:30:45.925Z,18.26
2023-05-20T18:33:13.737Z,18.27
2023-05-20T18:35:46.063Z,18.41
2023-05-20T18:38:12.676Z,18.38
2023-05-20T18:40:39.328Z,18.30
2023-05-20T18:43:06.030Z,18.31
2023-05-20T18:45:32.704Z,18.35
2023-05-20T18:48:00.225Z,18.31
2023-05-20T18:50:27.039Z,18.22
2023-05-20T18:52:53.772Z,18.11
2023-05-20T18:55:20.520Z,17.84
2023-05-20T18:57:47.184Z,17.81
2023-05-20T19:00:14.546Z,17.70
2023-05-20T19:02:42.021Z,17.83
2023-05-20T19:05:10.612Z,17.83
2023-05-20T19:07:38.279Z,17.76
2023-05-20T19:10:07.764Z,17.68
2023-05-20T19:12:34.621Z,17.63
2023-05-20T19:15:01.511Z,17.61
2023-05-20T19:17:28.148Z,17.58
2023-05-20T19:19:54.798Z,17.57
2023-05-20T19:22:21.592Z,17.50
2023-05-20T19:24:48.197Z,17.40
2023-05-20T19:27:14.788Z,17.42
2023-05-20T19:29:41.369Z,17.38
2023-05-20T19:32:08.278Z,17.33
2023-05-20T19:34:35.036Z,17.22
2023-05-20T19:37:01.716Z,17.10
2023-05-20T19:39:30.127Z,16.91
2023-05-20T19:41:56.872Z,16.79
2023-05-20T19:44:24.413Z,16.79
2023-05-20T19:46:51.640Z,16.80
2023-05-20T19:49:18.331Z,16.73
2023-05-20T19:51:45.182Z,16.67
2023-05-20T19:54:12.040Z,16.65
2023-05-20T19:56:38.962Z,16.65
2023-05-20T19:59:05.594Z,16.66
2023-05-20T20:01:32.372Z,16.62
2023-05-20T20:03:59.081Z,16.47
2023-05-20T20:06:28.097Z,16.51
2023-05-20T20:08:54.901Z,16.45
2023-05-20T20:11:21.742Z,16.40
2023-05-20T20:13:48.534Z,16.26
2023-05-20T20:16:15.652Z,16.27
2023-05-20T20:18:42.587Z,16.34
2023-05-20T20:21:11.106Z,16.33
2023-05-20T20:23:38.012Z,16.32
2023-05-20T20:26:06.106Z,16.39
2023-05-20T20:28:32.804Z,16.35
2023-05-20T20:30:59.588Z,16.25
2023-05-20T20:33:26.444Z,16.20
2023-05-20T20:35:58.836Z,16.13
2023-05-20T20:38:26.926Z,15.99
2023-05-20T20:40:55.095Z,15.91
2023-05-20T20:43:22.946Z,15.80
2023-05-20T20:45:53.284Z,15.69
2023-05-20T20:48:20.040Z,15.74
2023-05-20T20:50:47.752Z,15.78
2023-05-20T20:53:16.417Z,15.78
2023-05-20T20:55:51.304Z,15.67
2023-05-20T20:58:18.256Z,15.51
2023-05-20T21:00:45.819Z,15.47
2023-05-20T21:03:13.411Z,15.29
2023-05-20T21:05:40.242Z,15.32
2023-05-20T21:08:08.453Z,15.32
2023-05-20T21:10:37.179Z,15.24
2023-05-20T21:13:04.160Z,15.19
2023-05-20T21:15:30.950Z,15.07
2023-05-20T21:17:57.638Z,14.93
2023-05-20T21:20:24.469Z,14.79
2023-05-20T21:22:51.178Z,14.69
2023-05-20T21:25:17.961Z,14.61
2023-05-20T21:27:44.829Z,14.54
2023-05-20T21:30:12.226Z,14.54
2023-05-20T21:32:39.072Z,14.32
2023-05-20T21:35:06.434Z,14.25
2023-05-20T21:37:33.340Z,14.19
2023-05-20T21:40:00.093Z,14.23
2023-05-20T21:42:26.998Z,14.15
2023-05-20T21:44:53.667Z,14.19
2023-05-20T21:47:20.822Z,14.28
2023-05-20T21:49:48.243Z,14.31
2023-05-20T21:52:15.311Z,14.31
2023-05-20T21:54:42.034Z,14.25
2023-05-20T21:57:08.810Z,14.30
2023-05-20T21:59:35.690Z,14.42
2023-05-20T22:02:02.414Z,14.39
2023-05-20T22:04:29.037Z,14.39
2023-05-20T22:06:56.625Z,14.48
2023-05-20T22:09:23.276Z,14.54
2023-05-20T22:11:50.647Z,14.62
2023-05-20T22:14:17.822Z,14.66
2023-05-20T22:16:48.924Z,14.60
2023-05-20T22:19:16.644Z,14.59
2023-05-20T22:21:50.182Z,14.59
2023-05-20T22:24:17.840Z,14.42
2023-05-20T22:26:44.845Z,14.36
2023-05-20T22:29:11.520Z,14.43
2023-05-20T22:31:38.343Z,14.54
2023-05-20T22:34:05.650Z,14.56
2023-05-20T22:36:36.524Z,14.59
2023-05-20T22:39:05.681Z,14.58
2023-05-20T22:41:32.462Z,14.56
2023-05-20T22:43:59.134Z,14.56
2023-05-20T22:46:26.016Z,14.49
2023-05-20T22:48:53.169Z,14.55
2023-05-20T22:51:24.657Z,14.50
2023-05-20T22:53:51.551Z,14.39
2023-05-20T22:56:19.206Z,14.35
2023-05-20T22:58:45.972Z,14.37
2023-05-20T23:01:12.911Z,14.31
2023-05-20T23:03:40.064Z,14.25
2023-05-20T23:06:06.728Z,14.11
2023-05-20T23:08:33.407Z,14.00
2023-05-20T23:11:00.012Z,13.79
2023-05-20T23:13:26.672Z,13.77
2023-05-20T23:15:53.469Z,13.73
2023-05-20T23:18:20.059Z,13.51
2023-05-20T23:20:47.733Z,13.50
2023-05-20T23:23:14.518Z,13.48
2023-05-20T23:25:43.644Z,13.51
2023-05-20T23:28:11.722Z,13.47
2023-05-20T23:30:38.459Z,13.41
2023-05-20T23:33:05.201Z,13.35
2023-05-20T23:35:31.918Z,13.37
2023-05-20T23:37:58.583Z,13.29
2023-05-20T23:40:25.308Z,13.33
2023-05-20T23:42:51.925Z,13.22
2023-05-20T23:45:18.670Z,13.13
2023-05-20T23:47:45.935Z,13.14
2023-05-20T23:50:13.842Z,13.16
2023-05-20T23:52:40.539Z,13.15
2023-05-20T23:55:09.388Z,13.10
2023-05-20T23:57:36.216Z,13.02
